createdAt,value
2017-12-09T00:02:13.531Z,25.92
2017-12-09T00:04:40.964Z,26.58
2017-12-09T00:07:08.391Z,19.83
2017-12-09T00:09:36.485Z,25.40
2017-12-09T00:12:03.942Z,23.50
2017-12-09T00:14:31.388Z,26.95
2017-12-09T00:16:58.818Z,28.90
2017-12-09T00:19:26.650Z,26.02
2017-12-09T00:21:54.088Z,22.08
2017-12-09T00:24:21.516Z,21.30
2017-12-09T00:26:48.943Z,29.23
2017-12-09T00:29:16.784Z,26.10
2017-12-09T00:31:44.216Z,25.37
2017-12-09T00:34:11.648Z,21.20
2017-12-09T00:36:39.118Z,23.38
2017-12-09T00:39:06.527Z,18.15
2017-12-09T00:41:34.032Z,19.87
2017-12-09T00:44:01.440Z,19.80
2017-12-09T00:46:29.350Z,16.52
2017-12-09T00:48:57.059Z,22.30
2017-12-09T00:51:24.492Z,20.60
2017-12-09T00:53:51.921Z,23.25
2017-12-09T00:56:19.363Z,22.25
2017-12-09T00:58:46.795Z,19.33
2017-12-09T01:01:14.617Z,24.25
2017-12-09T01:03:42.055Z,21.17
2017-12-09T01:06:09.489Z,23.83
2017-12-09T01:08:36.916Z,23.45
2017-12-09T01:11:04.753Z,23.33
2017-12-09T01:13:32.184Z,24.55
2017-12-09T01:16:11.664Z,22.35
2017-12-09T01:18:51.305Z,19.23
2017-12-09T01:21:18.755Z,25.48
2017-12-09T01:23:46.189Z,25.17
2017-12-09T01:26:13.617Z,27.08
2017-12-09T01:28:41.392Z,21.25
2017-12-09T01:31:08.816Z,25.45
2017-12-09T01:33:36.239Z,17.98
2017-12-09T01:36:03.689Z,21.02
2017-12-09T01:38:31.119Z,21.83
2017-12-09T01:40:58.546Z,19.15
2017-12-09T01:43:25.971Z,17.33
2017-12-09T01:45:53.797Z,18.02
2017-12-09T01:48:21.221Z,20.30
2017-12-09T01:50:48.681Z,18.95
2017-12-09T01:53:16.099Z,13.68
2017-12-09T01:55:43.924Z,15.13
2017-12-09T01:58:11.373Z,19.40
2017-12-09T02:00:38.801Z,11.00
2017-12-09T02:03:06.224Z,14.20
2017-12-09T02:05:34.055Z,18.02
2017-12-09T02:08:01.480Z,13.20
2017-12-09T02:10:28.902Z,13.27
2017-12-09T02:12:56.740Z,10.90
2017-12-09T02:15:24.161Z,12.90
2017-12-09T02:17:51.587Z,13.40
2017-12-09T02:20:19.027Z,10.63
2017-12-09T02:22:46.852Z,13.88
2017-12-09T02:25:14.287Z,10.32
2017-12-09T02:27:41.711Z,4.85
2017-12-09T02:30:09.140Z,13.23
2017-12-09T02:32:36.960Z,8.52
2017-12-09T02:35:04.612Z,7.95
2017-12-09T02:37:32.044Z,12.57
2017-12-09T02:39:59.483Z,10.43
2017-12-09T02:42:26.911Z,12.65
2017-12-09T02:44:54.335Z,6.53
2017-12-09T02:47:21.770Z,6.78
2017-12-09T02:49:49.192Z,9.45
2017-12-09T02:54:51.529Z,8.50
2017-12-09T02:57:18.956Z,9.05
2017-12-09T02:59:46.380Z,7.07
2017-12-09T03:02:13.815Z,9.02
2017-12-09T03:04:41.237Z,11.93
2017-12-09T03:07:08.660Z,9.55
2017-12-09T03:09:36.664Z,23.10
2017-12-09T03:12:04.089Z,9.63
2017-12-09T03:14:31.908Z,14.77
2017-12-09T03:16:59.352Z,15.48
2017-12-09T03:19:26.771Z,16.52
2017-12-09T03:21:54.202Z,9.32
2017-12-09T03:24:22.037Z,19.05
2017-12-09T03:26:49.476Z,12.40
2017-12-09T03:29:16.901Z,9.50
2017-12-09T03:31:45.204Z,11.12
2017-12-09T03:34:12.628Z,8.18
2017-12-09T03:36:40.052Z,9.25
2017-12-09T03:39:07.588Z,9.07
2017-12-09T03:41:35.016Z,13.45
2017-12-09T03:44:02.444Z,11.73
2017-12-09T03:46:29.896Z,15.82
2017-12-09T03:48:57.330Z,12.95
2017-12-09T03:51:25.158Z,9.50
2017-12-09T03:53:52.605Z,15.05
2017-12-09T03:56:20.033Z,9.85
2017-12-09T03:58:47.463Z,8.43
2017-12-09T04:01:15.281Z,13.38
2017-12-09T04:03:42.708Z,15.75
2017-12-09T04:06:10.136Z,12.30
2017-12-09T04:08:37.976Z,8.50
2017-12-09T04:11:05.406Z,13.00
2017-12-09T04:13:32.832Z,7.60
2017-12-09T04:16:00.251Z,6.93
2017-12-09T04:18:27.676Z,7.30
2017-12-09T04:20:55.428Z,4.62
2017-12-09T04:23:22.853Z,4.97
2017-12-09T04:25:50.281Z,6.90
2017-12-09T04:28:17.720Z,4.97
2017-12-09T04:30:45.150Z,3.78
2017-12-09T04:33:12.576Z,6.35
2017-12-09T04:35:40.016Z,7.60
2017-12-09T04:38:07.831Z,4.60
2017-12-09T04:40:35.270Z,3.53
2017-12-09T04:43:02.941Z,4.87
2017-12-09T04:45:30.359Z,3.67
2017-12-09T04:47:57.789Z,6.85
2017-12-09T04:50:25.227Z,7.32
2017-12-09T04:52:52.652Z,6.10
2017-12-09T04:55:20.076Z,3.33
2017-12-09T04:57:47.625Z,3.80
2017-12-09T05:00:15.448Z,7.00
2017-12-09T05:02:42.875Z,4.82
2017-12-09T05:05:10.308Z,4.97
2017-12-09T05:07:37.732Z,2.87
2017-12-09T05:10:05.185Z,4.18
2017-12-09T05:12:32.608Z,3.30
2017-12-09T05:15:00.032Z,3.45
2017-12-09T05:17:27.480Z,4.37
2017-12-09T05:19:54.900Z,6.00
2017-12-09T05:22:22.324Z,5.65
2017-12-09T05:24:49.779Z,4.37
2017-12-09T05:27:17.200Z,4.35
2017-12-09T05:29:44.620Z,4.70
2017-12-09T05:32:12.061Z,3.58
2017-12-09T05:34:39.485Z,3.33
2017-12-09T05:37:06.913Z,3.12
2017-12-09T05:39:34.751Z,4.60
2017-12-09T05:42:02.181Z,3.58
2017-12-09T05:44:29.613Z,3.53
2017-12-09T05:46:57.380Z,3.25
2017-12-09T05:49:24.812Z,4.70
2017-12-09T05:51:52.240Z,3.85
2017-12-09T05:54:20.255Z,5.28
2017-12-09T05:56:47.689Z,3.62
2017-12-09T05:59:15.111Z,3.08
2017-12-09T06:01:42.545Z,3.22
2017-12-09T06:04:09.972Z,4.15
2017-12-09T06:06:37.405Z,3.30
2017-12-09T06:09:05.664Z,3.45
2017-12-09T06:11:33.476Z,4.12
2017-12-09T06:14:00.904Z,5.45
2017-12-09T06:16:28.448Z,4.80
2017-12-09T06:18:55.871Z,3.87
2017-12-09T06:21:23.302Z,3.95
2017-12-09T06:23:50.754Z,3.70
2017-12-09T06:26:18.172Z,4.05
2017-12-09T06:28:45.595Z,2.60
2017-12-09T06:31:13.039Z,4.68
2017-12-09T06:33:40.464Z,5.07
2017-12-09T06:36:07.899Z,4.75
2017-12-09T06:38:35.321Z,5.72
2017-12-09T06:41:03.135Z,4.15
2017-12-09T06:43:31.411Z,5.97
2017-12-09T06:45:58.841Z,4.90
2017-12-09T06:48:26.268Z,6.07
2017-12-09T06:50:54.085Z,5.43
2017-12-09T06:53:21.513Z,4.80
2017-12-09T06:55:48.940Z,6.22
2017-12-09T06:58:16.767Z,8.00
2017-12-09T07:00:44.211Z,4.55
2017-12-09T07:03:11.658Z,6.03
2017-12-09T07:05:39.084Z,5.70
2017-12-09T07:08:06.539Z,6.40
2017-12-09T07:10:34.366Z,5.93
2017-12-09T07:13:01.793Z,6.20
2017-12-09T07:15:29.561Z,6.03
2017-12-09T07:17:56.987Z,5.85
2017-12-09T07:20:24.407Z,5.07
2017-12-09T07:22:51.845Z,5.72
2017-12-09T07:25:19.277Z,5.55
2017-12-09T07:27:46.704Z,8.30
2017-12-09T07:30:14.213Z,3.42
2017-12-09T07:32:41.669Z,4.70
2017-12-09T07:35:09.094Z,6.37
2017-12-09T07:37:36.515Z,4.43
2017-12-09T07:40:03.967Z,6.62
2017-12-09T07:42:32.213Z,4.95
2017-12-09T07:44:59.640Z,7.28
2017-12-09T07:47:27.182Z,5.93
2017-12-09T07:49:54.604Z,5.37
2017-12-09T07:52:22.604Z,5.68
2017-12-09T07:54:50.068Z,7.40
2017-12-09T07:57:17.483Z,7.78
2017-12-09T07:59:45.320Z,7.87
2017-12-09T08:02:12.768Z,8.68
2017-12-09T08:04:40.201Z,8.88
2017-12-09T08:07:07.624Z,8.32
2017-12-09T08:09:35.408Z,7.47
2017-12-09T08:12:02.833Z,7.10
2017-12-09T08:14:30.256Z,7.35
2017-12-09T08:16:57.980Z,6.15
2017-12-09T08:19:25.441Z,12.27
2017-12-09T08:21:52.864Z,9.93
2017-12-09T08:24:20.312Z,6.68
2017-12-09T08:26:48.128Z,8.13
2017-12-09T08:29:15.557Z,7.25
2017-12-09T08:31:43.014Z,5.82
2017-12-09T08:34:10.446Z,8.30
2017-12-09T08:36:37.868Z,8.98
2017-12-09T08:39:05.320Z,6.37
2017-12-09T08:41:32.753Z,7.95
2017-12-09T08:44:00.182Z,6.72
2017-12-09T08:46:27.626Z,8.38
2017-12-09T08:48:55.054Z,5.50
2017-12-09T08:51:22.884Z,13.45
2017-12-09T08:53:50.940Z,9.48
2017-12-09T08:56:18.365Z,8.48
2017-12-09T08:58:45.809Z,6.95
2017-12-09T09:01:13.244Z,8.02
2017-12-09T09:03:41.077Z,12.77
2017-12-09T09:06:08.511Z,10.52
2017-12-09T09:08:35.974Z,10.95
2017-12-09T09:11:03.404Z,7.28
2017-12-09T09:13:30.836Z,7.32
2017-12-09T09:15:58.672Z,9.00
2017-12-09T09:18:26.104Z,5.55
2017-12-09T09:20:53.549Z,15.85
2017-12-09T09:23:20.968Z,10.43
2017-12-09T09:25:48.792Z,8.10
2017-12-09T09:28:16.544Z,8.60
2017-12-09T09:30:44.365Z,3.60
2017-12-09T09:33:11.796Z,9.10
2017-12-09T09:35:39.244Z,8.20
2017-12-09T09:38:06.680Z,7.25
2017-12-09T09:40:34.121Z,10.23
2017-12-09T09:43:01.544Z,11.40
2017-12-09T09:45:28.977Z,7.70
2017-12-09T09:47:56.837Z,7.68
2017-12-09T09:50:24.665Z,8.95
2017-12-09T09:52:52.105Z,11.85
2017-12-09T09:55:19.641Z,6.70
2017-12-09T09:57:47.068Z,8.68
2017-12-09T10:00:21.637Z,10.23
2017-12-09T10:02:49.146Z,10.23
2017-12-09T10:05:16.512Z,7.05
2017-12-09T10:07:44.220Z,9.75
2017-12-09T10:10:11.652Z,8.53
2017-12-09T10:12:39.088Z,9.23
2017-12-09T10:15:06.784Z,10.20
2017-12-09T10:17:34.217Z,8.40
2017-12-09T10:20:01.655Z,8.67
2017-12-09T10:22:29.487Z,9.90
2017-12-09T10:24:56.917Z,14.20
2017-12-09T10:27:24.348Z,10.30
2017-12-09T10:29:52.001Z,8.50
2017-12-09T10:32:19.451Z,5.70
2017-12-09T10:34:47.252Z,12.27
2017-12-09T10:37:14.808Z,13.00
2017-12-09T10:39:42.264Z,6.47
2017-12-09T10:42:09.735Z,16.10
2017-12-09T10:44:37.161Z,9.73
2017-12-09T10:47:04.617Z,11.67
2017-12-09T10:49:32.621Z,14.23
2017-12-09T10:52:00.053Z,9.63
2017-12-09T10:54:27.709Z,14.00
2017-12-09T10:56:55.191Z,12.83
2017-12-09T10:59:22.594Z,9.90
2017-12-09T11:01:50.009Z,11.37
2017-12-09T11:04:17.535Z,10.73
2017-12-09T11:06:45.021Z,10.27
2017-12-09T11:09:12.500Z,9.80
2017-12-09T11:11:39.891Z,13.63
2017-12-09T11:14:07.349Z,13.00
2017-12-09T11:16:34.780Z,9.40
2017-12-09T11:19:02.216Z,10.43
2017-12-09T11:21:30.061Z,11.00
2017-12-09T11:23:57.885Z,16.77
2017-12-09T11:26:25.325Z,14.27
2017-12-09T11:28:52.896Z,50.07
2017-12-09T11:31:20.327Z,9.60
2017-12-09T11:33:47.754Z,15.33
2017-12-09T11:36:15.597Z,12.37
2017-12-09T11:38:43.037Z,9.67
2017-12-09T11:41:10.474Z,11.90
2017-12-09T11:43:37.932Z,14.70
2017-12-09T11:46:05.384Z,12.87
2017-12-09T11:48:32.816Z,11.70
2017-12-09T11:51:00.268Z,8.87
2017-12-09T11:53:27.687Z,8.90
2017-12-09T11:55:55.112Z,9.00
2017-12-09T11:58:22.554Z,12.03
2017-12-09T12:00:50.833Z,9.97
2017-12-09T12:03:18.272Z,9.80
2017-12-09T12:05:45.696Z,12.00
2017-12-09T12:08:13.541Z,8.60
2017-12-09T12:10:40.981Z,11.63
2017-12-09T12:13:08.447Z,9.47
2017-12-09T12:15:36.803Z,12.10
2017-12-09T12:18:04.228Z,26.17
2017-12-09T12:20:31.657Z,10.03
2017-12-09T12:22:59.519Z,7.10
2017-12-09T12:25:27.361Z,8.73
2017-12-09T12:27:54.790Z,9.07
2017-12-09T12:30:22.392Z,14.87
2017-12-09T12:32:50.313Z,7.20
2017-12-09T12:35:17.744Z,9.17
2017-12-09T12:37:45.512Z,12.53
2017-12-09T12:40:12.940Z,9.37
2017-12-09T12:42:40.768Z,13.73
2017-12-09T12:45:08.224Z,10.93
2017-12-09T12:47:35.656Z,8.03
2017-12-09T12:50:03.113Z,8.30
2017-12-09T12:52:30.549Z,10.63
2017-12-09T12:54:58.856Z,12.67
2017-12-09T12:57:26.313Z,10.13
2017-12-09T12:59:53.741Z,14.70
2017-12-09T13:02:21.168Z,8.53
2017-12-09T13:04:48.624Z,10.93
2017-12-09T13:07:16.129Z,10.27
2017-12-09T13:09:43.561Z,13.00
2017-12-09T13:12:11.022Z,12.73
2017-12-09T13:14:38.448Z,6.27
2017-12-09T13:17:05.934Z,13.67
2017-12-09T13:19:33.489Z,10.37
2017-12-09T13:22:00.934Z,10.52
2017-12-09T13:24:28.408Z,10.93
2017-12-09T13:26:55.962Z,11.63
2017-12-09T13:29:23.406Z,6.40
2017-12-09T13:31:50.850Z,15.25
2017-12-09T13:34:18.293Z,12.57
2017-12-09T13:36:45.729Z,12.93
2017-12-09T13:39:13.576Z,11.88
2017-12-09T13:41:41.009Z,10.00
2017-12-09T13:44:08.565Z,8.77
2017-12-09T13:46:36.021Z,7.10
2017-12-09T13:49:03.459Z,8.13
2017-12-09T13:51:30.912Z,13.27
2017-12-09T13:53:58.377Z,17.83
2017-12-09T13:56:25.809Z,20.33
2017-12-09T13:58:53.240Z,9.50
2017-12-09T14:01:20.852Z,15.80
2017-12-09T14:03:48.309Z,10.77
2017-12-09T14:06:15.752Z,12.83
2017-12-09T14:08:43.213Z,8.30
2017-12-09T14:11:10.659Z,15.88
2017-12-09T14:13:38.092Z,9.27
2017-12-09T14:16:05.659Z,17.20
2017-12-09T14:18:33.132Z,10.52
2017-12-09T14:21:00.565Z,7.60
2017-12-09T14:23:28.032Z,12.82
2017-12-09T14:25:55.468Z,7.18
2017-12-09T14:28:22.904Z,12.50
2017-12-09T14:30:50.381Z,8.50
2017-12-09T14:33:17.820Z,15.00
2017-12-09T14:35:45.317Z,12.13
2017-12-09T14:38:12.769Z,9.38
2017-12-09T14:40:40.217Z,15.32
2017-12-09T14:43:07.661Z,10.82
2017-12-09T14:45:35.145Z,19.83
2017-12-09T14:48:02.585Z,15.82
2017-12-09T14:50:30.020Z,9.68
2017-12-09T14:52:57.604Z,17.35
2017-12-09T14:55:25.037Z,17.02
2017-12-09T14:57:52.473Z,14.85
2017-12-09T15:00:20.076Z,8.02
2017-12-09T15:02:47.505Z,9.18
2017-12-09T15:05:14.932Z,8.20
2017-12-09T15:07:42.790Z,10.43
2017-12-09T15:10:10.708Z,10.23
2017-12-09T15:12:38.136Z,6.25
2017-12-09T15:15:06.183Z,6.95
2017-12-09T15:17:34.028Z,5.65
2017-12-09T15:20:01.457Z,10.82
2017-12-09T15:22:28.901Z,4.65
2017-12-09T15:24:56.477Z,8.02
2017-12-09T15:27:24.125Z,7.78
2017-12-09T15:29:51.569Z,5.43
2017-12-09T15:32:19.408Z,5.25
2017-12-09T15:34:46.848Z,4.22
2017-12-09T15:37:14.705Z,6.85
2017-12-09T15:39:42.537Z,6.97
2017-12-09T15:42:09.977Z,9.82
2017-12-09T15:44:37.412Z,5.45
2017-12-09T15:47:04.868Z,6.07
2017-12-09T15:49:32.292Z,6.47
2017-12-09T15:51:59.725Z,6.20
2017-12-09T15:54:27.180Z,5.00
2017-12-09T15:56:54.708Z,3.70
2017-12-09T15:59:22.146Z,8.43
2017-12-09T16:01:49.596Z,4.93
2017-12-09T16:04:17.020Z,6.85
2017-12-09T16:06:44.849Z,8.07
2017-12-09T16:09:12.501Z,9.02
2017-12-09T16:11:39.950Z,8.95
2017-12-09T16:14:07.394Z,5.10
2017-12-09T16:16:34.840Z,7.25
2017-12-09T16:19:02.316Z,9.93
2017-12-09T16:21:29.753Z,4.82
2017-12-09T16:23:57.432Z,9.75
2017-12-09T16:26:24.865Z,8.68
2017-12-09T16:28:52.291Z,9.73
2017-12-09T16:31:20.124Z,10.23
2017-12-09T16:33:47.569Z,7.30
2017-12-09T16:36:14.995Z,5.47
2017-12-09T16:38:42.680Z,5.82
2017-12-09T16:41:10.133Z,7.65
2017-12-09T16:43:37.569Z,9.70
2017-12-09T16:46:04.996Z,11.63
2017-12-09T16:48:32.821Z,5.93
2017-12-09T16:51:00.269Z,11.32
2017-12-09T16:53:27.844Z,13.80
2017-12-09T16:55:55.284Z,10.05
2017-12-09T16:58:22.829Z,10.32
2017-12-09T17:00:50.260Z,8.35
2017-12-09T17:03:17.683Z,6.75
2017-12-09T17:05:45.520Z,8.00
2017-12-09T17:08:12.968Z,7.03
2017-12-09T17:10:40.389Z,7.25
2017-12-09T17:13:08.072Z,10.95
2017-12-09T17:15:35.505Z,8.70
2017-12-09T17:18:02.941Z,8.23
2017-12-09T17:20:30.784Z,8.10
2017-12-09T17:22:58.849Z,11.60
2017-12-09T17:25:26.368Z,5.75
2017-12-09T17:27:53.925Z,8.25
2017-12-09T17:30:21.336Z,8.45
2017-12-09T17:32:49.169Z,6.37
2017-12-09T17:35:16.624Z,10.15
2017-12-09T17:37:44.077Z,7.50
2017-12-09T17:40:11.536Z,5.62
2017-12-09T17:42:38.972Z,10.70
2017-12-09T17:45:06.417Z,11.88
2017-12-09T17:47:33.854Z,7.65
2017-12-09T17:50:01.637Z,8.80
2017-12-09T17:52:29.068Z,10.10
2017-12-09T17:54:56.510Z,6.47
2017-12-09T17:57:24.343Z,9.07
2017-12-09T17:59:51.813Z,9.13
2017-12-09T18:02:19.214Z,13.85
2017-12-09T18:04:46.881Z,9.95
2017-12-09T18:07:14.323Z,11.18
2017-12-09T18:09:41.761Z,11.93
2017-12-09T18:12:09.212Z,9.57
2017-12-09T18:14:36.660Z,8.85
2017-12-09T18:17:04.485Z,5.60
2017-12-09T18:19:31.916Z,6.32
2017-12-09T18:21:59.353Z,7.93
2017-12-09T18:24:26.797Z,6.12
2017-12-09T18:26:54.266Z,6.95
2017-12-09T18:29:21.705Z,7.80
2017-12-09T18:31:49.201Z,5.65
2017-12-09T18:34:16.696Z,7.47
2017-12-09T18:36:44.536Z,6.40
2017-12-09T18:39:11.980Z,4.95
2017-12-09T18:41:39.415Z,7.70
2017-12-09T18:44:06.872Z,5.50
2017-12-09T18:46:34.340Z,4.78
2017-12-09T18:49:01.781Z,6.43
2017-12-09T18:51:29.212Z,5.12
2017-12-09T18:53:56.945Z,5.57
2017-12-09T18:56:24.412Z,4.97
2017-12-09T18:58:52.948Z,3.95
2017-12-09T19:01:20.387Z,6.62
2017-12-09T19:03:47.817Z,5.15
2017-12-09T19:06:15.525Z,6.40
2017-12-09T19:08:42.957Z,8.68
2017-12-09T19:11:10.384Z,4.70
2017-12-09T19:13:37.928Z,5.57
2017-12-09T19:16:05.760Z,6.87
2017-12-09T19:18:33.205Z,10.15
2017-12-09T19:21:00.654Z,5.32
2017-12-09T19:23:28.085Z,5.35
2017-12-09T19:25:55.520Z,5.82
2017-12-09T19:28:22.956Z,7.40
2017-12-09T19:30:50.780Z,6.65
2017-12-09T19:33:18.237Z,7.35
2017-12-09T19:35:45.664Z,4.20
2017-12-09T19:38:13.140Z,6.35
2017-12-09T19:40:40.813Z,4.25
2017-12-09T19:43:08.252Z,6.55
2017-12-09T19:45:35.684Z,4.70
2017-12-09T19:48:03.385Z,6.85
2017-12-09T19:50:30.836Z,5.70
2017-12-09T19:52:58.605Z,8.43
2017-12-09T19:55:26.045Z,6.43
2017-12-09T19:57:53.477Z,4.32
2017-12-09T20:00:20.909Z,6.50
2017-12-09T20:02:48.758Z,4.10
2017-12-09T20:05:16.192Z,5.10
2017-12-09T20:07:43.636Z,7.32
2017-12-09T20:10:11.074Z,11.30
2017-12-09T20:12:38.516Z,6.28
2017-12-09T20:15:05.968Z,8.63
2017-12-09T20:17:33.422Z,10.30
2017-12-09T20:20:00.853Z,5.35
2017-12-09T20:22:28.696Z,6.68
2017-12-09T20:24:56.132Z,5.80
2017-12-09T20:27:23.567Z,5.47
2017-12-09T20:29:51.109Z,6.12
2017-12-09T20:32:18.541Z,11.07
2017-12-09T20:34:46.382Z,6.80
2017-12-09T20:37:13.813Z,18.15
2017-12-09T20:39:41.244Z,5.50
2017-12-09T20:42:08.707Z,6.03
2017-12-09T20:44:36.149Z,4.53
2017-12-09T20:47:03.577Z,10.88
2017-12-09T20:49:31.432Z,4.05
2017-12-09T20:51:59.870Z,6.53
2017-12-09T20:54:27.301Z,6.97
2017-12-09T20:56:54.748Z,4.20
2017-12-09T20:59:22.172Z,3.75
2017-12-09T21:01:49.996Z,5.10
2017-12-09T21:04:17.447Z,5.87
2017-12-09T21:06:44.868Z,8.63
2017-12-09T21:09:12.302Z,6.47
2017-12-09T21:11:40.128Z,6.18
2017-12-09T21:14:07.557Z,5.25
2017-12-09T21:16:34.988Z,5.37
2017-12-09T21:19:02.813Z,6.35
2017-12-09T21:21:30.277Z,7.45
2017-12-09T21:23:57.718Z,4.70
2017-12-09T21:26:25.156Z,6.22
2017-12-09T21:28:52.597Z,7.97
2017-12-09T21:31:20.021Z,5.22
2017-12-09T21:33:47.866Z,7.22
2017-12-09T21:36:15.297Z,5.65
2017-12-09T21:38:42.734Z,9.73
2017-12-09T21:41:10.185Z,7.97
2017-12-09T21:43:37.612Z,6.75
2017-12-09T21:46:05.044Z,6.45
2017-12-09T21:48:32.504Z,5.45
2017-12-09T21:51:00.593Z,6.78
2017-12-09T21:53:28.025Z,7.22
2017-12-09T21:55:55.482Z,4.45
2017-12-09T21:58:23.321Z,5.95
2017-12-09T22:00:50.760Z,5.25
2017-12-09T22:03:18.208Z,5.47
2017-12-09T22:05:45.632Z,6.28
2017-12-09T22:08:13.070Z,6.25
2017-12-09T22:10:40.896Z,6.00
2017-12-09T22:13:08.334Z,7.57
2017-12-09T22:15:35.784Z,5.30
2017-12-09T22:18:03.213Z,9.35
2017-12-09T22:20:30.640Z,7.20
2017-12-09T22:22:58.188Z,6.65
2017-12-09T22:25:25.612Z,7.50
2017-12-09T22:27:53.053Z,8.93
2017-12-09T22:30:20.854Z,8.70
2017-12-09T22:32:48.303Z,13.43
2017-12-09T22:35:15.721Z,9.55
2017-12-09T22:37:43.167Z,10.60
2017-12-09T22:40:10.594Z,7.85
2017-12-09T22:42:38.037Z,11.85
2017-12-09T22:45:05.482Z,9.95
2017-12-09T22:47:32.917Z,8.70
2017-12-09T22:50:00.350Z,16.30
2017-12-09T22:52:28.649Z,8.88
2017-12-09T22:54:56.093Z,10.10
2017-12-09T22:57:23.526Z,6.22
2017-12-09T22:59:50.969Z,13.23
2017-12-09T23:02:18.801Z,13.45
2017-12-09T23:04:46.237Z,9.68
2017-12-09T23:07:13.680Z,9.93
2017-12-09T23:09:41.161Z,12.80
2017-12-09T23:12:08.574Z,14.98
2017-12-09T23:14:35.996Z,12.90
2017-12-09T23:17:03.824Z,13.02
2017-12-09T23:19:31.579Z,10.25
2017-12-09T23:21:59.012Z,10.65
2017-12-09T23:24:26.440Z,12.73
2017-12-09T23:26:54.284Z,18.75
2017-12-09T23:29:21.712Z,11.20
2017-12-09T23:31:49.148Z,16.15
2017-12-09T23:34:16.816Z,13.85
2017-12-09T23:36:44.249Z,15.02
2017-12-09T23:39:11.676Z,19.35
2017-12-09T23:41:40.413Z,15.30
2017-12-09T23:44:07.850Z,14.43
2017-12-09T23:46:35.281Z,11.98
2017-12-09T23:49:02.917Z,15.57
2017-12-09T23:51:30.352Z,19.45
2017-12-09T23:53:57.793Z,13.98
2017-12-09T23:56:25.249Z,16.85
2017-12-09T23:58:52.680Z,22.85
